createdAt,value
2018-04-18T00:02:07.974Z,99.90
2018-04-18T00:04:35.525Z,99.90
2018-04-18T00:07:03.080Z,99.90
2018-04-18T00:09:31.382Z,99.90
2018-04-18T00:11:58.920Z,99.90
2018-04-18T00:14:26.492Z,99.90
2018-04-18T00:16:54.006Z,99.90
2018-04-18T00:19:21.627Z,99.90
2018-04-18T00:21:49.166Z,99.90
2018-04-18T00:24:16.683Z,99.90
2018-04-18T00:26:45.747Z,99.90
2018-04-18T00:29:13.260Z,99.90
2018-04-18T00:31:41.569Z,99.90
2018-04-18T00:34:09.101Z,99.90
2018-04-18T00:36:37.452Z,99.90
2018-04-18T00:39:04.996Z,99.90
2018-04-18T00:41:32.538Z,99.90
2018-04-18T00:44:00.087Z,99.90
2018-04-18T00:46:28.598Z,99.90
2018-04-18T00:48:56.232Z,99.90
2018-04-18T00:51:23.770Z,99.90
2018-04-18T00:53:52.174Z,99.90
2018-04-18T00:56:19.836Z,99.90
2018-04-18T00:58:47.379Z,99.90
2018-04-18T01:01:14.908Z,99.90
2018-04-18T01:03:42.443Z,99.90
2018-04-18T01:06:09.984Z,99.90
2018-04-18T01:08:37.513Z,99.90
2018-04-18T01:11:05.048Z,99.90
2018-04-18T01:13:32.588Z,99.90
2018-04-18T01:16:00.116Z,99.90
2018-04-18T01:18:27.776Z,99.90
2018-04-18T01:20:55.314Z,99.90
2018-04-18T01:23:23.620Z,99.90
2018-04-18T01:25:51.142Z,99.90
2018-04-18T01:28:19.552Z,99.90
2018-04-18T01:30:47.077Z,99.90
2018-04-18T01:33:15.356Z,99.90
2018-04-18T01:35:43.660Z,99.90
2018-04-18T01:38:11.224Z,99.90
2018-04-18T01:40:38.750Z,99.90
2018-04-18T01:43:07.065Z,99.90
2018-04-18T01:45:34.585Z,99.90
2018-04-18T01:48:02.891Z,99.90
2018-04-18T01:50:30.430Z,99.90
2018-04-18T01:52:58.742Z,99.90
2018-04-18T01:55:26.262Z,99.90
2018-04-18T01:57:54.679Z,99.90
2018-04-18T02:00:22.200Z,99.90
2018-04-18T02:02:50.486Z,99.90
2018-04-18T02:05:18.786Z,99.90
2018-04-18T02:07:46.309Z,99.90
2018-04-18T02:10:13.835Z,99.90
2018-04-18T02:12:41.372Z,99.90
2018-04-18T02:15:08.930Z,99.90
2018-04-18T02:17:36.448Z,99.90
2018-04-18T02:20:04.077Z,99.90
2018-04-18T02:22:31.589Z,99.90
2018-04-18T02:24:59.889Z,99.90
2018-04-18T02:27:27.435Z,99.90
2018-04-18T02:29:54.965Z,99.90
2018-04-18T02:32:22.486Z,99.90
2018-04-18T02:34:50.028Z,99.90
2018-04-18T02:37:17.560Z,99.90
2018-04-18T02:39:45.871Z,99.90
2018-04-18T02:42:13.426Z,99.90
2018-04-18T02:44:40.993Z,99.90
2018-04-18T02:47:08.545Z,99.90
2018-04-18T02:49:36.082Z,99.90
2018-04-18T02:52:04.365Z,99.90
2018-04-18T02:54:31.893Z,99.90
2018-04-18T02:56:59.452Z,99.90
2018-04-18T02:59:26.988Z,99.90
2018-04-18T03:01:54.500Z,99.90
2018-04-18T03:04:22.801Z,99.90
2018-04-18T03:06:50.324Z,99.90
2018-04-18T03:09:18.608Z,99.90
2018-04-18T03:11:47.018Z,99.90
2018-04-18T03:14:14.550Z,99.90
2018-04-18T03:16:42.840Z,99.90
2018-04-18T03:19:10.421Z,99.90
2018-04-18T03:21:37.960Z,99.90
2018-04-18T03:24:05.500Z,99.90
2018-04-18T03:26:33.818Z,99.90
2018-04-18T03:29:01.341Z,99.90
2018-04-18T03:31:29.639Z,99.90
2018-04-18T03:33:57.170Z,99.90
2018-04-18T03:36:24.689Z,99.90
2018-04-18T03:38:52.330Z,99.90
2018-04-18T03:41:19.875Z,99.90
2018-04-18T03:43:48.172Z,99.90
2018-04-18T03:46:15.697Z,99.90
2018-04-18T03:48:44.002Z,99.90
2018-04-18T03:51:11.538Z,99.90
2018-04-18T03:53:39.817Z,99.90
2018-04-18T03:56:08.115Z,99.90
2018-04-18T03:58:35.649Z,99.90
2018-04-18T04:01:03.970Z,99.90
2018-04-18T04:03:31.884Z,99.90
2018-04-18T04:05:59.408Z,99.90
2018-04-18T04:08:26.926Z,99.90
2018-04-18T04:10:55.236Z,99.90
2018-04-18T04:13:22.753Z,99.90
2018-04-18T04:15:50.283Z,99.90
2018-04-18T04:18:29.893Z,99.90
2018-04-18T04:21:09.357Z,99.90
2018-04-18T04:23:48.792Z,99.90
2018-04-18T04:26:16.313Z,99.90
2018-04-18T04:28:44.620Z,99.90
2018-04-18T04:31:12.181Z,99.90
2018-04-18T04:33:39.707Z,99.90
2018-04-18T04:36:08.022Z,99.90
2018-04-18T04:38:35.580Z,99.90
2018-04-18T04:41:03.136Z,99.90
2018-04-18T04:43:30.650Z,99.90
2018-04-18T04:45:58.957Z,99.90
2018-04-18T04:48:26.536Z,99.90
2018-04-18T04:50:54.104Z,99.90
2018-04-18T04:53:21.636Z,99.90
2018-04-18T04:55:50.144Z,99.90
2018-04-18T04:58:17.674Z,99.90
2018-04-18T05:00:45.994Z,99.90
2018-04-18T05:03:13.530Z,99.90
2018-04-18T05:05:41.059Z,99.90
2018-04-18T05:08:09.366Z,99.90
2018-04-18T05:10:36.894Z,99.90
2018-04-18T05:13:04.419Z,99.90
2018-04-18T05:15:32.064Z,99.90
2018-04-18T05:17:59.590Z,99.90
2018-04-18T05:20:27.870Z,99.90
2018-04-18T05:22:56.182Z,99.90
2018-04-18T05:25:23.718Z,99.90
2018-04-18T05:27:52.061Z,99.90
2018-04-18T05:30:19.597Z,99.90
2018-04-18T05:32:47.459Z,99.90
2018-04-18T05:35:14.990Z,99.90
2018-04-18T05:37:42.584Z,99.90
2018-04-18T05:40:10.129Z,99.90
2018-04-18T05:42:37.660Z,99.90
2018-04-18T05:45:06.066Z,99.90
2018-04-18T05:47:33.624Z,99.90
2018-04-18T05:50:01.148Z,99.90
2018-04-18T05:52:29.474Z,99.90
2018-04-18T05:54:57.010Z,99.90
2018-04-18T05:57:24.582Z,99.90
2018-04-18T05:59:52.261Z,99.90
2018-04-18T06:02:19.789Z,99.90
2018-04-18T06:04:47.365Z,99.90
2018-04-18T06:07:14.926Z,99.90
2018-04-18T06:09:42.492Z,99.90
2018-04-18T06:12:10.022Z,99.90
2018-04-18T06:14:38.324Z,99.90
2018-04-18T06:17:05.848Z,99.90
2018-04-18T06:19:34.163Z,99.90
2018-04-18T06:22:01.705Z,99.90
2018-04-18T06:24:29.388Z,99.90
2018-04-18T06:26:56.928Z,99.90
2018-04-18T06:29:24.524Z,99.90
2018-04-18T06:31:52.052Z,99.90
2018-04-18T06:34:19.632Z,99.90
2018-04-18T06:36:47.157Z,99.90
2018-04-18T06:39:15.462Z,99.90
2018-04-18T06:41:42.998Z,99.90
2018-04-18T06:44:11.289Z,99.90
2018-04-18T06:46:38.820Z,99.90
2018-04-18T06:49:07.105Z,99.90
2018-04-18T06:51:35.421Z,99.90
2018-04-18T06:54:02.978Z,99.90
2018-04-18T06:56:30.519Z,99.90
2018-04-18T06:58:58.820Z,99.90
2018-04-18T07:01:26.348Z,99.90
2018-04-18T07:03:54.656Z,99.90
2018-04-18T07:06:22.220Z,99.90
2018-04-18T07:08:49.752Z,99.90
2018-04-18T07:11:18.094Z,99.90
2018-04-18T07:13:45.630Z,99.90
2018-04-18T07:16:13.157Z,99.90
2018-04-18T07:18:40.740Z,99.90
2018-04-18T07:21:08.277Z,99.90
2018-04-18T07:23:35.811Z,99.90
2018-04-18T07:26:03.341Z,99.90
2018-04-18T07:28:30.884Z,99.90
2018-04-18T07:30:58.410Z,99.90
2018-04-18T07:33:26.714Z,99.90
2018-04-18T07:35:54.242Z,99.90
2018-04-18T07:38:22.548Z,99.90
2018-04-18T07:40:50.076Z,99.90
2018-04-18T07:43:18.393Z,99.90
2018-04-18T07:45:45.913Z,99.90
2018-04-18T07:48:14.221Z,99.90
2018-04-18T07:50:41.786Z,99.90
2018-04-18T07:53:09.349Z,99.90
2018-04-18T07:55:36.877Z,99.90
2018-04-18T07:58:05.194Z,99.90
2018-04-18T08:00:32.712Z,99.90
2018-04-18T08:03:00.996Z,99.90
2018-04-18T08:05:28.578Z,99.90
2018-04-18T08:07:56.140Z,99.90
2018-04-18T08:10:23.686Z,99.90
2018-04-18T08:12:51.228Z,99.90
2018-04-18T08:15:19.563Z,99.90
2018-04-18T08:17:47.072Z,99.90
2018-04-18T08:20:15.472Z,98.50
2018-04-18T08:22:43.011Z,98.50
2018-04-18T08:25:11.418Z,99.80
2018-04-18T08:27:38.980Z,99.90
2018-04-18T08:30:06.528Z,99.50
2018-04-18T08:32:34.053Z,99.20
2018-04-18T08:35:02.354Z,99.30
2018-04-18T08:37:29.884Z,98.90
2018-04-18T08:39:57.538Z,99.10
2018-04-18T08:42:25.172Z,97.60
2018-04-18T08:44:52.704Z,97.10
2018-04-18T08:47:20.232Z,96.00
2018-04-18T08:49:48.541Z,96.90
2018-04-18T08:52:16.847Z,96.50
2018-04-18T08:54:44.371Z,96.50
2018-04-18T08:57:11.930Z,97.10
2018-04-18T08:59:39.451Z,97.50
2018-04-18T09:02:07.080Z,96.10
2018-04-18T09:04:34.628Z,96.10
2018-04-18T09:07:02.173Z,95.60
2018-04-18T09:09:29.700Z,95.20
2018-04-18T09:11:57.323Z,97.00
2018-04-18T09:14:24.847Z,93.50
2018-04-18T09:16:53.137Z,93.70
2018-04-18T09:19:20.708Z,93.70
2018-04-18T09:21:48.276Z,94.40
2018-04-18T09:24:15.832Z,92.00
2018-04-18T09:26:43.399Z,93.30
2018-04-18T09:29:10.934Z,93.20
2018-04-18T09:31:38.506Z,91.80
2018-04-18T09:34:06.072Z,91.80
2018-04-18T09:36:33.596Z,92.80
2018-04-18T09:39:01.899Z,93.30
2018-04-18T09:41:29.448Z,93.30
2018-04-18T09:43:56.970Z,93.50
2018-04-18T09:46:24.492Z,90.80
2018-04-18T09:48:52.030Z,91.10
2018-04-18T09:51:19.604Z,92.60
2018-04-18T09:53:47.175Z,88.60
2018-04-18T09:56:14.728Z,87.10
2018-04-18T09:58:42.266Z,87.30
2018-04-18T10:01:09.785Z,86.30
2018-04-18T10:03:37.317Z,84.30
2018-04-18T10:06:04.862Z,87.30
2018-04-18T10:08:32.386Z,83.20
2018-04-18T10:11:00.723Z,82.80
2018-04-18T10:13:28.367Z,82.80
2018-04-18T10:15:55.899Z,77.80
2018-04-18T10:18:24.316Z,77.70
2018-04-18T10:20:51.850Z,77.80
2018-04-18T10:23:19.382Z,75.20
2018-04-18T10:25:47.687Z,73.80
2018-04-18T10:28:15.234Z,73.80
2018-04-18T10:30:43.539Z,75.00
2018-04-18T10:33:11.090Z,75.00
2018-04-18T10:35:38.617Z,82.30
2018-04-18T10:38:06.935Z,73.70
2018-04-18T10:40:34.491Z,72.90
2018-04-18T10:43:02.053Z,69.90
2018-04-18T10:45:29.621Z,77.40
2018-04-18T10:47:57.157Z,74.20
2018-04-18T10:50:24.684Z,73.60
2018-04-18T10:52:52.218Z,69.20
2018-04-18T10:55:19.752Z,68.40
2018-04-18T10:57:47.270Z,65.50
2018-04-18T11:00:14.796Z,74.10
2018-04-18T11:02:42.372Z,68.70
2018-04-18T11:05:09.902Z,76.00
2018-04-18T11:07:37.441Z,77.50
2018-04-18T11:10:04.985Z,78.70
2018-04-18T11:12:33.274Z,78.40
2018-04-18T11:15:00.851Z,78.30
2018-04-18T11:17:28.418Z,73.70
2018-04-18T11:19:55.946Z,65.60
2018-04-18T11:22:24.240Z,63.50
2018-04-18T11:24:51.793Z,63.60
2018-04-18T11:27:19.320Z,65.20
2018-04-18T11:29:46.925Z,60.90
2018-04-18T11:32:14.459Z,62.10
2018-04-18T11:34:42.763Z,56.90
2018-04-18T11:37:10.290Z,56.90
2018-04-18T11:39:38.689Z,54.40
2018-04-18T11:42:06.203Z,54.30
2018-04-18T11:44:33.829Z,53.90
2018-04-18T11:47:01.374Z,56.40
2018-04-18T11:49:28.912Z,57.00
2018-04-18T11:51:57.248Z,50.60
2018-04-18T11:54:24.779Z,50.60
2018-04-18T11:56:52.355Z,51.40
2018-04-18T11:59:19.899Z,54.30
2018-04-18T12:01:47.434Z,49.30
2018-04-18T12:04:15.733Z,49.90
2018-04-18T12:06:43.258Z,49.90
2018-04-18T12:09:11.567Z,49.30
2018-04-18T12:11:39.085Z,49.30
2018-04-18T12:14:06.616Z,44.70
2018-04-18T12:16:34.162Z,46.80
2018-04-18T12:19:01.696Z,46.40
2018-04-18T12:21:29.978Z,48.30
2018-04-18T12:23:57.519Z,48.20
2018-04-18T12:26:25.831Z,47.10
2018-04-18T12:28:53.369Z,47.00
2018-04-18T12:31:21.870Z,42.60
2018-04-18T12:33:49.446Z,42.60
2018-04-18T12:36:17.713Z,44.80
2018-04-18T12:38:45.278Z,44.70
2018-04-18T12:41:12.808Z,45.00
2018-04-18T12:43:40.329Z,48.10
2018-04-18T12:46:08.629Z,51.50
2018-04-18T12:48:36.916Z,46.20
2018-04-18T12:51:05.212Z,44.60
2018-04-18T12:53:32.738Z,44.30
2018-04-18T12:56:01.035Z,47.10
2018-04-18T12:58:29.332Z,49.40
2018-04-18T13:00:56.890Z,49.50
2018-04-18T13:03:24.408Z,50.90
2018-04-18T13:05:52.037Z,45.00
2018-04-18T13:08:19.576Z,41.80
2018-04-18T13:10:47.121Z,38.80
2018-04-18T13:13:14.648Z,38.20
2018-04-18T13:15:42.183Z,41.10
2018-04-18T13:18:09.719Z,42.80
2018-04-18T13:20:37.252Z,42.40
2018-04-18T13:23:04.802Z,39.60
2018-04-18T13:25:33.089Z,42.40
2018-04-18T13:28:00.672Z,42.40
2018-04-18T13:30:28.204Z,41.20
2018-04-18T13:32:56.492Z,40.80
2018-04-18T13:35:24.062Z,40.80
2018-04-18T13:37:51.616Z,36.40
2018-04-18T13:40:19.148Z,37.10
2018-04-18T13:42:47.462Z,38.00
2018-04-18T13:45:14.989Z,38.00
2018-04-18T13:47:43.303Z,36.10
2018-04-18T13:50:10.862Z,36.10
2018-04-18T13:52:38.397Z,36.30
2018-04-18T13:55:06.701Z,37.80
2018-04-18T13:57:34.228Z,37.80
2018-04-18T14:00:02.643Z,39.00
2018-04-18T14:02:30.203Z,39.00
2018-04-18T14:04:57.726Z,37.70
2018-04-18T14:07:26.038Z,38.10
2018-04-18T14:09:53.563Z,38.10
2018-04-18T14:12:21.849Z,36.70
2018-04-18T14:14:49.404Z,36.70
2018-04-18T14:17:17.685Z,36.90
2018-04-18T14:19:45.982Z,36.60
2018-04-18T14:22:13.518Z,36.60
2018-04-18T14:24:41.825Z,36.70
2018-04-18T14:27:09.372Z,36.60
2018-04-18T14:29:36.921Z,36.80
2018-04-18T14:32:05.248Z,37.70
2018-04-18T14:34:32.753Z,37.70
2018-04-18T14:37:01.169Z,41.40
2018-04-18T14:39:28.690Z,41.40
2018-04-18T14:41:57.000Z,38.10
2018-04-18T14:44:24.560Z,37.90
2018-04-18T14:46:52.089Z,41.30
2018-04-18T14:49:20.395Z,41.50
2018-04-18T14:51:47.941Z,41.50
2018-04-18T14:54:15.476Z,41.00
2018-04-18T14:56:43.793Z,42.10
2018-04-18T14:59:11.365Z,42.00
2018-04-18T15:01:38.899Z,40.90
2018-04-18T15:04:06.420Z,43.90
2018-04-18T15:06:33.962Z,47.70
2018-04-18T15:09:01.492Z,42.10
2018-04-18T15:11:29.011Z,41.40
2018-04-18T15:13:57.432Z,47.00
2018-04-18T15:16:24.982Z,46.80
2018-04-18T15:18:52.549Z,45.90
2018-04-18T15:21:20.094Z,43.40
2018-04-18T15:23:47.620Z,42.10
2018-04-18T15:26:15.234Z,48.30
2018-04-18T15:28:42.780Z,44.60
2018-04-18T15:31:10.316Z,44.50
2018-04-18T15:33:38.608Z,45.70
2018-04-18T15:36:06.152Z,45.70
2018-04-18T15:38:34.446Z,44.50
2018-04-18T15:41:02.740Z,43.00
2018-04-18T15:43:30.314Z,43.10
2018-04-18T15:45:57.876Z,45.10
2018-04-18T15:48:25.402Z,43.10
2018-04-18T15:50:53.692Z,45.00
2018-04-18T15:53:21.209Z,45.00
2018-04-18T15:55:49.498Z,45.60
2018-04-18T15:58:17.822Z,46.60
2018-04-18T16:00:45.347Z,46.60
2018-04-18T16:03:13.633Z,52.10
2018-04-18T16:05:41.933Z,47.10
2018-04-18T16:08:09.457Z,47.10
2018-04-18T16:10:37.773Z,48.50
2018-04-18T16:13:05.326Z,48.50
2018-04-18T16:15:32.844Z,49.20
2018-04-18T16:18:00.361Z,48.60
2018-04-18T16:20:27.910Z,46.50
2018-04-18T16:22:55.440Z,47.80
2018-04-18T16:25:22.972Z,52.50
2018-04-18T16:27:52.107Z,49.40
2018-04-18T16:30:31.338Z,49.30
2018-04-18T16:32:59.655Z,50.00
2018-04-18T16:35:27.191Z,50.00
2018-04-18T16:37:54.726Z,51.00
2018-04-18T16:40:23.036Z,50.60
2018-04-18T16:42:50.560Z,50.50
2018-04-18T16:45:18.846Z,49.10
2018-04-18T16:47:47.253Z,50.40
2018-04-18T16:50:14.806Z,50.40
2018-04-18T16:52:42.375Z,51.60
2018-04-18T16:55:09.912Z,53.00
2018-04-18T16:57:37.515Z,53.50
2018-04-18T17:00:05.038Z,51.10
2018-04-18T17:02:32.650Z,53.10
2018-04-18T17:05:00.187Z,53.60
2018-04-18T17:07:27.739Z,62.80
2018-04-18T17:09:55.280Z,57.90
2018-04-18T17:12:22.811Z,62.30
2018-04-18T17:14:50.394Z,65.20
2018-04-18T17:17:17.942Z,65.20
2018-04-18T17:19:46.277Z,68.20
2018-04-18T17:22:13.835Z,68.40
2018-04-18T17:24:41.394Z,65.20
2018-04-18T17:27:08.949Z,64.70
2018-04-18T17:29:36.479Z,62.80
2018-04-18T17:32:04.067Z,62.00
2018-04-18T17:34:31.589Z,66.90
2018-04-18T17:36:59.890Z,66.00
2018-04-18T17:39:27.426Z,66.00
2018-04-18T17:41:55.727Z,66.10
2018-04-18T17:44:23.261Z,66.20
2018-04-18T17:46:51.676Z,72.70
2018-04-18T17:49:19.196Z,72.60
2018-04-18T17:51:47.500Z,71.70
2018-04-18T17:54:15.147Z,71.60
2018-04-18T17:56:42.741Z,69.40
2018-04-18T17:59:10.280Z,70.00
2018-04-18T18:01:37.828Z,68.30
2018-04-18T18:04:06.156Z,68.50
2018-04-18T18:06:33.688Z,68.50
2018-04-18T18:09:01.364Z,62.10
2018-04-18T18:11:28.886Z,63.40
2018-04-18T18:13:57.191Z,63.20
2018-04-18T18:16:24.754Z,63.10
2018-04-18T18:18:52.351Z,61.40
2018-04-18T18:21:19.896Z,63.00
2018-04-18T18:23:47.544Z,61.80
2018-04-18T18:26:15.152Z,59.00
2018-04-18T18:28:43.461Z,58.60
2018-04-18T18:31:11.040Z,58.40
2018-04-18T18:33:38.582Z,57.10
2018-04-18T18:36:06.124Z,57.20
2018-04-18T18:38:34.448Z,57.80
2018-04-18T18:41:01.982Z,57.80
2018-04-18T18:43:29.555Z,59.50
2018-04-18T18:45:57.090Z,59.60
2018-04-18T18:48:24.620Z,60.50
2018-04-18T18:50:53.661Z,59.50
2018-04-18T18:53:21.215Z,59.50
2018-04-18T18:55:48.760Z,58.90
2018-04-18T18:58:17.161Z,60.10
2018-04-18T19:00:44.784Z,60.00
2018-04-18T19:03:13.126Z,61.20
2018-04-18T19:05:40.656Z,60.90
2018-04-18T19:08:08.242Z,60.20
2018-04-18T19:10:35.788Z,61.90
2018-04-18T19:13:03.308Z,62.70
2018-04-18T19:15:31.618Z,64.00
2018-04-18T19:17:59.154Z,64.00
2018-04-18T19:20:27.470Z,65.20
2018-04-18T19:22:55.025Z,65.00
2018-04-18T19:25:22.678Z,65.00
2018-04-18T19:27:50.216Z,67.30
2018-04-18T19:30:18.728Z,68.60
2018-04-18T19:32:46.284Z,68.60
2018-04-18T19:35:13.829Z,69.80
2018-04-18T19:37:42.144Z,71.50
2018-04-18T19:40:09.680Z,71.50
2018-04-18T19:42:37.210Z,72.50
2018-04-18T19:45:05.508Z,75.00
2018-04-18T19:47:33.026Z,74.90
2018-04-18T19:50:00.554Z,77.00
2018-04-18T19:52:28.097Z,76.60
2018-04-18T19:54:55.620Z,78.20
2018-04-18T19:57:23.916Z,80.30
2018-04-18T19:59:52.244Z,81.00
2018-04-18T20:02:19.764Z,80.90
2018-04-18T20:04:47.360Z,82.40
2018-04-18T20:07:14.925Z,81.70
2018-04-18T20:09:42.551Z,83.40
2018-04-18T20:12:10.089Z,84.30
2018-04-18T20:14:38.414Z,85.30
2018-04-18T20:17:05.947Z,85.20
2018-04-18T20:19:33.508Z,85.10
2018-04-18T20:22:01.069Z,87.20
2018-04-18T20:24:28.641Z,85.80
2018-04-18T20:26:56.206Z,88.00
2018-04-18T20:29:23.860Z,87.20
2018-04-18T20:31:51.395Z,87.20
2018-04-18T20:34:19.720Z,88.20
2018-04-18T20:36:49.004Z,88.10
2018-04-18T20:39:16.556Z,89.40
2018-04-18T20:41:44.937Z,90.10
2018-04-18T20:44:12.589Z,89.50
2018-04-18T20:46:40.123Z,89.80
2018-04-18T20:49:08.439Z,89.30
2018-04-18T20:51:35.980Z,89.30
2018-04-18T20:54:03.530Z,88.40
2018-04-18T20:56:31.833Z,88.90
2018-04-18T20:58:59.379Z,88.90
2018-04-18T21:01:26.949Z,89.70
2018-04-18T21:03:54.472Z,89.30
2018-04-18T21:06:22.028Z,90.20
2018-04-18T21:08:49.578Z,89.90
2018-04-18T21:11:17.114Z,90.00
2018-04-18T21:13:44.701Z,90.10
2018-04-18T21:16:12.235Z,90.40
2018-04-18T21:18:39.762Z,90.40
2018-04-18T21:21:07.436Z,90.80
2018-04-18T21:23:34.959Z,90.80
2018-04-18T21:26:03.281Z,90.80
2018-04-18T21:28:30.835Z,90.80
2018-04-18T21:30:58.353Z,91.20
2018-04-18T21:33:26.643Z,91.10
2018-04-18T21:35:54.969Z,91.30
2018-04-18T21:38:22.507Z,91.30
2018-04-18T21:40:50.032Z,91.40
2018-04-18T21:43:18.327Z,91.40
2018-04-18T21:45:45.888Z,91.40
2018-04-18T21:48:13.475Z,91.90
2018-04-18T21:50:41.004Z,91.70
2018-04-18T21:53:08.534Z,91.90
2018-04-18T21:55:36.838Z,92.80
2018-04-18T21:58:05.140Z,92.40
2018-04-18T22:00:32.678Z,92.30
2018-04-18T22:03:00.984Z,92.80
2018-04-18T22:05:28.515Z,92.90
2018-04-18T22:07:56.798Z,92.80
2018-04-18T22:10:24.430Z,92.80
2018-04-18T22:12:51.975Z,92.80
2018-04-18T22:15:19.609Z,92.90
2018-04-18T22:17:47.137Z,93.00
2018-04-18T22:20:15.437Z,93.70
2018-04-18T22:22:42.973Z,93.70
2018-04-18T22:25:11.271Z,94.10
2018-04-18T22:27:38.800Z,94.10
2018-04-18T22:30:07.097Z,94.70
2018-04-18T22:32:34.673Z,94.60
2018-04-18T22:35:02.208Z,94.90
2018-04-18T22:37:30.509Z,94.90
2018-04-18T22:39:58.034Z,94.90
2018-04-18T22:42:26.450Z,95.10
2018-04-18T22:44:53.985Z,95.10
2018-04-18T22:47:21.510Z,95.20
2018-04-18T22:49:49.138Z,95.10
2018-04-18T22:52:16.652Z,95.30
2018-04-18T22:54:44.980Z,95.10
2018-04-18T22:57:12.517Z,95.10
2018-04-18T22:59:40.030Z,95.00
2018-04-18T23:02:07.562Z,95.00
2018-04-18T23:04:35.093Z,94.90
2018-04-18T23:07:02.619Z,94.80
2018-04-18T23:09:30.145Z,94.80
2018-04-18T23:11:57.785Z,94.90
2018-04-18T23:14:25.356Z,94.70
2018-04-18T23:16:52.909Z,94.90
2018-04-18T23:19:20.539Z,95.00
2018-04-18T23:21:48.827Z,94.80
2018-04-18T23:24:16.348Z,94.80
2018-04-18T23:26:43.902Z,95.00
2018-04-18T23:29:11.429Z,95.00
2018-04-18T23:31:38.995Z,94.90
2018-04-18T23:34:06.644Z,95.10
2018-04-18T23:36:34.207Z,94.90
2018-04-18T23:39:01.737Z,95.30
2018-04-18T23:41:30.038Z,95.20
2018-04-18T23:43:57.568Z,95.20
2018-04-18T23:46:25.853Z,95.30
2018-04-18T23:48:54.306Z,95.20
2018-04-18T23:51:21.802Z,95.20
2018-04-18T23:53:49.358Z,95.30
2018-04-18T23:56:17.660Z,95.80
2018-04-18T23:58:45.222Z,95.80
